الصفحة الرئيسية
METAR-TAF:

METAR-TAF

مطار :

نوميا / La Tontouta, نيو كاليدونيا

دائرة عرض: 22-01S, خط طول: 166-13E, ارتفاع: 16 متر

مراقبة الطقس الحالي

تاريخ ووقت الإصدار 41 دقيقة قبل الساعة 05:00UTC
ريح 7 عقدة من الشمال, الاتجاه يتراوح بين الشمال/الشمال الغربي و الشمال الشرقي
درجة الحرارة 26°درجة مئوية
الرطوبة 54%
ضغط 1014 hPa
الرؤية 10 كم أو أكثر
غيوم متفرقة على ارتفاع 4300 قدم

METAR: NWWW 270500Z AUTO 01007KT 330V050 9999 SCT043 26/16 Q1014 NOSIG

زمن: 16:41 (05:41 UTC)

توقعات

تاريخ ووقت الإصدار 6ساعات و 41 دقيقة قبل الساعة 23:00UTC
التوقعات صالحة من27 الساعة 00 UTC إلى 27 الساعة 24 UTC
ريح 8 عقدة من الجنوب/الجنوب الشرقي
الرؤية 10 كم أو أكثر
غيوم قليلة على ارتفاع 3000 قدم

TAF: NWWW 262300Z 2700/2724 15008KT 9999 FEW030

أرصاد الطقس والتوقعات من أكثر من 4000 مطار (تقارير الطقس للمطار METAR والتنبؤ بالطقس بالمطارTAF).

المحطات المتاحة هي النقط الصفراء والحمراء على الخريطة.

حرك المؤشر فوق النقطة لمعرفة اسم المحطة.

ثم انقر لمعرفة أرصاد وتوقعات الطقس.

لتغيير الخارطة: اضغط على الأزرار الخضراء مع رمز الصليب الأسود للتكبير. على الزر الأخضر مع شرطة للتصغير، أو على الأسهم الخضراء للخرائط المجاورة.


METAR-TAF: